INFORMAÇÕES DO AERODROMO
Icao Aerodromo SKMR Nome do Aerodromo Los Garzones Airport Cidade Montería
Código GPS SKMR Elevação Média 36 ft Tipo de Aerodromo Aeroporto Médio Porte

INFORMAÇÃO DE PISTA
Pista 14 Comprimento da Pista 6285 ft Largura da Pista 115 ft
Elevação da Pista 20 ft Distância de Area de Escape da Pista 0 ft Orientação da Pista 138
Pista 32 Comprimento da Pista 6285 ft Largura da Pista 115 ft
Elevação da Pista 18 ft Distância de Area de Escape da Pista 0 ft Orientação da Pista 318

FREQUÊNCIAS DO AERODROMO
Tipo INFO Nome MONTERIA F Frequência 127.5 MHZ
Tipo RDO Nome MONTERIA R Frequência 348.8 MHZ
Tipo TWR Nome TWR Frequência 118.1 MHZ

INFORMAÇÕES DE NAVEGAÇÃO PRÓXIMO AO AERODROMO
Tipo VOR-DME Nome Monteria Frequência 114400 KHZ

Informações de Meteorologia(METAR atual)
METAR DE SKMR
ADDS - METARS form results

(0456 UTC 20 September 2018)
Data provider http://aviationweather.gov/metar/data/
 
METAR text: SKMR 200400Z 00000KT 9999 SCT018 27/25 A2981
Conditions at: SKMR (MONTERIA/LOS GAR, CO) observed 0400 UTC 20 September 2018
Temperature: 27.0°C (81°F)
Dewpoint: 25.0°C (77°F) [RH = 89%]
Pressure (altimeter): 29.81 inches Hg (1009.6 mb)
Winds: calm
Visibility: 6 or more miles (10+ km)
Ceiling: at least 12,000 feet AGL
Clouds: scattered clouds at 1800 feet AGL
Weather: no significant weather observed at this time

MAPA DO AERODROMO


Desenvolvido por Virtual Airlines Manager




Modificado por Servidor Brasil Amigos